General Lavalle, Argentina
Current Conditions -  °F | °C
As of 9:00 PM on Friday 24 Oct 2014 (Local Time) from SAZM Reporting Station
Haze Haze  
Wind Chill: 61°   Ceiling: 800
Heat Index: 61°   Visibility: 1.1mi
Dew Point: 61°   Wind: 8mph
Humidity: 100%   Direction: 70°ENE
Pressure: 30"   Gusts: NA
Location:  36.4°S, 56.97°W
Report Text: SAZM 250000Z 07007KT 1800 BR SCT003 OVC00816/16 Q1016
Loading
Personal Weather Stations






























Interactive Weather Map
Tropical Storm Tracking
New forecast layout! Learn more

10-Day Weather Forecast

Advertisements
Track Severe Weather on mobile